CheckWX is a tool to help pilots better visualize weather data.  It is not intended as a substitute for an official pre-flight weather briefing.

01:06:53 UTC

FYOW METAR
Otjiwarongo Airport
Otjiwarongo, Namibia
Current

1 hour ago

FYOW 240000Z AUTO 14003KT //// // ////// 25/10 Q1018
Observed
Feb-24 @ 00:00 UTC
Wind
  • 140° at 3 KTS
Visibility
Temperature
25°C / 77°F
Dewpoint
10°C / 50°F
Humidity
39%
Altimeter
30.06" Hg
Pressure
1017.92 hPa
Previous

2 hours ago

FYOW 232300Z AUTO 12001KT //// // ////// 25/10 Q1018
Observed
Feb-23 @ 23:00 UTC
Wind
  • 120° at 1 KTS
Visibility
Temperature
25°C / 77°F
Dewpoint
10°C / 50°F
Humidity
39%
Altimeter
30.06" Hg
Pressure
1017.92 hPa
Previous

3 hours ago

FYOW 232200Z AUTO 19001KT //// // ////// 26/10 Q1019
Observed
Feb-23 @ 22:00 UTC
Wind
  • 190° at 1 KTS
Visibility
Temperature
26°C / 79°F
Dewpoint
10°C / 50°F
Humidity
37%
Altimeter
30.09" Hg
Pressure
1018.92 hPa